M I D A S
Marine Information and Data Acquisition System
Tripno 419 of the Zeeleeuw from 2003-01-24 08:17:28 to 2003-01-24 12:49:23
Back to CruiseResearch ActivitiesStationsMapUnderway DataData graphs

EquipmentUnitsComments
TimeDGPSUTC
LatitudeDGPSDM.mWGS84
LongitudeDGPSDM.mWGS84
SpeedMeteo Stationm/sRelative wind speed
DirectionMeteo StationdegRelative wind direction
TemperatureMeteo Stationdeg CelciusAir temperature
PressureMeteo StationPaAtmospheric pressure
HumidityMeteo Station%Relative humidity
Missing or incorrect values are displayed as -999
Metereological data collected by the RV Zeeleeuw from 2003-01-24 08:17:28 to 2003-01-24 12:49:23
Time Latitude Longitude Speed Direction Temperature Pressure Humidity
2003-01-24 08:18 51°13.624 2°55.986 2.4 88 2.2 103750 87
2003-01-24 08:19 51°13.655 2°55.88 2.9 71 2.2 103760 87
2003-01-24 08:20 51°13.686 2°55.778 2 78 2.2 103760 87
2003-01-24 08:21 51°13.696 2°55.754 0.9 71 2.2 103760 87
2003-01-24 08:22 51°13.724 2°55.763 0.5 85 2.2 103760 88
2003-01-24 08:23 51°13.718 2°55.764 2.3 28 2.3 103760 88
2003-01-24 08:24 51°13.727 2°55.744 0.4 320 2.3 103760 88
2003-01-24 08:25 51°13.805 2°55.654 3 245 2.4 103750 87
2003-01-24 08:26 51°13.913 2°55.572 2.9 256 2.4 103750 88
2003-01-24 08:27 51°14.025 2°55.493 2.8 252 2.6 103760 88
2003-01-24 08:28 51°14.131 2°55.413 3.3 270 2.7 103760 88
2003-01-24 08:29 51°14.237 2°55.314 3.9 287 2.9 103750 88
2003-01-24 08:30 51°14.326 2°55.18 4 261 3.2 103750 88
2003-01-24 08:31 51°14.395 2°54.979 6.6 259 3.5 103750 88
2003-01-24 08:32 51°14.42 2°54.663 9 256 3.7 103740 87
2003-01-24 08:33 51°14.436 2°54.319 8.8 247 3.7 103740 86
2003-01-24 08:34 51°14.358 2°54.009 9.6 244 3.5 103740 85
2003-01-24 08:35 51°14.264 2°53.702 9.4 243 3.5 103760 85
2003-01-24 08:36 51°14.165 2°53.39 9.9 243 3.6 103760 86
2003-01-24 08:37 51°14.064 2°53.071 10.5 240 3.6 103760 85
2003-01-24 08:38 51°13.961 2°52.751 10.5 244 3.7 103750 85
2003-01-24 08:39 51°13.857 2°52.431 10.4 240 3.6 103760 84
2003-01-24 08:40 51°13.745 2°52.108 10.8 238 3.5 103760 84
2003-01-24 08:41 51°13.636 2°51.774 11.2 240 3.4 103770 84
2003-01-24 08:42 51°13.531 2°51.434 10.2 243 3.6 103750 85
2003-01-24 08:43 51°13.43 2°51.088 11.4 242 3.8 103760 86
2003-01-24 08:44 51°13.326 2°50.743 11.6 237 4.1 103770 86
2003-01-24 08:45 51°13.223 2°50.396 12.3 235 4.4 103780 86
2003-01-24 08:46 51°13.107 2°50.059 12.8 235 4.6 103780 85
2003-01-24 08:47 51°12.983 2°49.727 11.5 237 4.6 103770 84
2003-01-24 08:48 51°12.861 2°49.393 11.4 235 4.7 103780 84
2003-01-24 08:49 51°12.739 2°49.06 11.6 239 4.7 103770 84
2003-01-24 08:50 51°12.616 2°48.726 11.5 235 4.8 103780 84
2003-01-24 08:51 51°12.493 2°48.392 11.6 233 4.8 103790 84
2003-01-24 08:52 51°12.362 2°48.065 11.9 236 4.8 103790 84
2003-01-24 08:53 51°12.235 2°47.736 11.1 237 4.8 103780 84
2003-01-24 08:54 51°12.108 2°47.403 11.3 231 4.8 103790 83
2003-01-24 08:55 51°11.979 2°47.071 11.5 238 4.8 103790 83
2003-01-24 08:56 51°11.85 2°46.74 12 237 4.7 103770 83
2003-01-24 08:57 51°11.719 2°46.413 11.5 236 4.6 103790 83
2003-01-24 08:58 51°11.59 2°46.086 11.7 238 4.5 103770 84
2003-01-24 08:59 51°11.461 2°45.759 11.2 238 4.5 103790 84
2003-01-24 09:00 51°11.355 2°45.411 10.9 242 4.4 103800 84
2003-01-24 09:01 51°11.274 2°45.051 11.4 242 4.6 103800 85
2003-01-24 09:02 51°11.186 2°44.681 11.4 237 4.6 103800 85
2003-01-24 09:03 51°11.112 2°44.31 11 238 4.6 103800 85
2003-01-24 09:04 51°11.041 2°43.937 11.3 237 4.6 103800 86
2003-01-24 09:05 51°10.971 2°43.563 11.7 238 4.7 103800 86
2003-01-24 09:06 51°10.905 2°43.188 11.7 242 4.8 103810 86
2003-01-24 09:07 51°10.839 2°42.812 11.2 245 4.8 103800 86
2003-01-24 09:08 51°10.774 2°42.435 11.3 247 4.8 103800 87
2003-01-24 09:09 51°10.708 2°42.056 11.8 245 4.9 103800 87
2003-01-24 09:10 51°10.653 2°41.676 11.4 245 5 103810 87
2003-01-24 09:11 51°10.598 2°41.296 12.7 244 5.1 103800 88
2003-01-24 09:12 51°10.548 2°40.916 12.8 244 5.2 103810 88
2003-01-24 09:13 51°10.491 2°40.539 11.9 243 5.2 103810 88
2003-01-24 09:14 51°10.437 2°40.16 11.7 238 5.2 103810 88
2003-01-24 09:15 51°10.383 2°39.779 11.5 240 5.2 103820 88
2003-01-24 09:16 51°10.327 2°39.399 12.1 236 5.3 103810 89
2003-01-24 09:17 51°10.27 2°39.019 12.1 239 5.3 103810 89
2003-01-24 09:18 51°10.214 2°38.637 11.9 239 5.4 103820 89
2003-01-24 09:19 51°10.152 2°38.258 11.5 234 5.5 103820 89
2003-01-24 09:20 51°10.092 2°37.876 12.1 238 5.5 103820 89
2003-01-24 09:21 51°10.034 2°37.495 12.3 240 5.5 103820 89
2003-01-24 09:22 51°9.973 2°37.116 12.2 237 5.5 103830 89
2003-01-24 09:23 51°9.933 2°36.75 10.7 246 5.6 103830 89
2003-01-24 09:24 51°9.953 2°36.409 11.3 243 5.7 103830 89
2003-01-24 09:25 51°10.014 2°36.079 11 256 5.7 103820 89
2003-01-24 09:26 51°10.169 2°35.814 9 270 5.7 103820 89
2003-01-24 09:27 51°10.384 2°35.775 4.4 275 5.6 103830 89
2003-01-24 09:28 51°10.586 2°35.928 4.3 265 5.7 103840 89
2003-01-24 09:29 51°10.789 2°36.087 4.3 260 5.7 103840 89
2003-01-24 09:30 51°10.991 2°36.258 4 264 5.8 103840 89
2003-01-24 09:31 51°11.192 2°36.429 4.2 267 5.8 103840 88
2003-01-24 09:32 51°11.392 2°36.595 4.1 259 5.8 103850 88
2003-01-24 09:33 51°11.586 2°36.773 3.6 257 5.9 103840 88
2003-01-24 09:34 51°11.777 2°36.959 3.8 258 5.9 103840 88
2003-01-24 09:35 51°11.97 2°37.141 4.4 269 5.9 103850 88
2003-01-24 09:36 51°12.177 2°37.28 4.1 271 6 103840 88
2003-01-24 09:37 51°12.386 2°37.419 4.2 255 6 103840 88
2003-01-24 09:38 51°12.594 2°37.561 4.2 259 6 103840 88
2003-01-24 09:39 51°12.803 2°37.703 3.9 261 6.1 103840 88
2003-01-24 09:40 51°13.001 2°37.876 3.7 264 6.1 103850 88
2003-01-24 09:41 51°13.191 2°38.07 3.4 254 6.1 103850 88
2003-01-24 09:42 51°13.38 2°38.27 3.7 263 6.2 103830 88
2003-01-24 09:43 51°13.569 2°38.47 3.4 255 6.2 103830 88
2003-01-24 09:44 51°13.757 2°38.667 3.7 269 6.2 103840 88
2003-01-24 09:45 51°13.953 2°38.837 5.4 272 6.2 103840 87
2003-01-24 09:46 51°14.138 2°38.665 11.2 254 6.2 103820 87
2003-01-24 09:47 51°14.115 2°38.301 12.5 237 6.3 103810 87
2003-01-24 09:48 51°13.999 2°37.958 13.5 237 6.3 103820 87
2003-01-24 09:49 51°13.884 2°37.61 13.2 235 6.3 103820 87
2003-01-24 09:50 51°13.774 2°37.256 13.1 235 6.3 103820 87
2003-01-24 09:51 51°13.671 2°36.897 13.1 236 6.3 103820 87
2003-01-24 09:52 51°13.566 2°36.539 12.5 233 6.3 103810 87
2003-01-24 09:53 51°13.461 2°36.181 12.7 237 6.3 103790 87
2003-01-24 09:54 51°13.359 2°35.821 13.5 234 6.3 103790 87
2003-01-24 09:55 51°13.255 2°35.464 12.7 234 6.3 103800 86
2003-01-24 09:56 51°13.148 2°35.109 13.8 236 6.4 103810 86
2003-01-24 09:57 51°13.039 2°34.754 13.8 237 6.4 103810 86
2003-01-24 09:58 51°12.933 2°34.398 12.9 236 6.4 103810 85
2003-01-24 09:59 51°12.826 2°34.044 13.9 234 6.4 103790 85
2003-01-24 10:00 51°12.721 2°33.686 13.4 235 6.4 103810 84
2003-01-24 10:01 51°12.612 2°33.328 13.4 235 6.4 103810 84
2003-01-24 10:02 51°12.504 2°32.973 12.9 233 6.5 103800 84
2003-01-24 10:03 51°12.394 2°32.618 13.2 234 6.5 103800 84
2003-01-24 10:04 51°12.285 2°32.263 13.2 231 6.6 103800 84
2003-01-24 10:05 51°12.177 2°31.907 13.6 237 6.6 103800 84
2003-01-24 10:06 51°12.069 2°31.552 12.9 236 6.6 103810 84
2003-01-24 10:07 51°11.96 2°31.197 13.3 238 6.6 103820 84
2003-01-24 10:08 51°11.853 2°30.841 13.3 236 6.6 103790 84
2003-01-24 10:09 51°11.744 2°30.486 13.7 231 6.6 103810 84
2003-01-24 10:10 51°11.635 2°30.127 13.8 235 6.6 103800 84
2003-01-24 10:11 51°11.525 2°29.768 14.5 232 6.6 103810 84
2003-01-24 10:12 51°11.418 2°29.405 13.3 233 6.5 103790 84
2003-01-24 10:13 51°11.313 2°29.037 14.6 238 6.5 103810 84
2003-01-24 10:14 51°11.238 2°28.653 13.8 241 6.5 103790 84
2003-01-24 10:15 51°11.212 2°28.252 13.7 242 6.5 103790 84
2003-01-24 10:16 51°11.186 2°27.842 13.7 242 6.5 103810 84
2003-01-24 10:17 51°11.166 2°27.431 13.3 243 6.5 103810 84
2003-01-24 10:18 51°11.15 2°27.02 13.9 244 6.5 103810 84
2003-01-24 10:19 51°11.134 2°26.609 13.8 243 6.6 103810 84
2003-01-24 10:20 51°11.116 2°26.197 13.6 240 6.6 103810 84
2003-01-24 10:21 51°11.098 2°25.788 14.3 242 6.6 103810 84
2003-01-24 10:22 51°11.14 2°25.395 12.8 265 6.6 103810 84
2003-01-24 10:23 51°11.337 2°25.211 7 285 6.6 103810 84
2003-01-24 10:24 51°11.541 2°25.267 0.9 4 6.6 103830 84
2003-01-24 10:25 51°11.608 2°25.419 2.2 57 6.7 103830 84
2003-01-24 10:26 51°11.644 2°25.439 4.7 8 6.7 103820 84
2003-01-24 10:27 51°11.668 2°25.43 5.2 353 6.6 103830 84
2003-01-24 10:28 51°11.691 2°25.421 5.1 12 6.6 103830 84
2003-01-24 10:29 51°11.708 2°25.424 5 132 6.6 103830 84
2003-01-24 10:30 51°11.715 2°25.438 4.7 65 6.7 103840 84
2003-01-24 10:31 51°11.724 2°25.45 5.2 30 6.6 103830 84
2003-01-24 10:32 51°11.737 2°25.448 5.4 8 6.6 103840 84
2003-01-24 10:33 51°11.748 2°25.434 4.1 343 6.6 103840 83
2003-01-24 10:34 51°11.755 2°25.413 1.1 338 6.6 103830 83
2003-01-24 10:35 51°11.759 2°25.388 2.6 305 6.6 103830 83
2003-01-24 10:36 51°11.76 2°25.362 4 307 6.6 103830 84
2003-01-24 10:37 51°11.758 2°25.334 5.1 297 6.6 103830 83
2003-01-24 10:38 51°11.754 2°25.308 6.1 296 6.7 103830 83
2003-01-24 10:39 51°11.751 2°25.282 6.3 296 6.8 103820 83
2003-01-24 10:40 51°11.747 2°25.256 6 297 6.8 103830 83
2003-01-24 10:41 51°11.742 2°25.231 7.1 291 6.8 103830 83
2003-01-24 10:42 51°11.738 2°25.206 6.2 290 6.8 103830 83
2003-01-24 10:43 51°11.741 2°25.147 7.2 279 6.8 103830 82
2003-01-24 10:44 51°11.748 2°25.059 7.7 295 6.8 103830 82
2003-01-24 10:45 51°11.769 2°24.989 1.3 328 6.8 103830 82
2003-01-24 10:46 51°11.799 2°24.963 4 19 6.8 103830 82
2003-01-24 10:47 51°11.822 2°24.975 4.4 41 6.7 103840 82
2003-01-24 10:48 51°11.854 2°25.002 3.6 21 6.8 103840 83
2003-01-24 10:49 51°11.993 2°25.136 1.4 287 6.7 103840 82
2003-01-24 10:50 51°12.15 2°25.354 1.7 231 6.8 103830 82
2003-01-24 10:51 51°12.305 2°25.581 2 260 6.9 103830 82
2003-01-24 10:52 51°12.47 2°25.794 1.3 221 6.9 103830 82
2003-01-24 10:53 51°12.624 2°26.025 2.2 256 6.9 103840 82
2003-01-24 10:54 51°12.777 2°26.258 1.4 262 7 103840 82
2003-01-24 10:55 51°12.925 2°26.502 0.8 258 7 103840 82
2003-01-24 10:56 51°13.073 2°26.745 1.4 242 7 103830 82
2003-01-24 10:57 51°13.22 2°26.994 1.4 221 7 103840 82
2003-01-24 10:58 51°13.36 2°27.252 2 220 7 103840 82
2003-01-24 10:59 51°13.502 2°27.507 1.9 226 7 103830 82
2003-01-24 11:00 51°13.645 2°27.763 1.6 217 7.1 103840 82
2003-01-24 11:01 51°13.788 2°28.02 1.2 229 7 103840 82
2003-01-24 11:02 51°13.94 2°28.264 1.1 255 7 103840 82
2003-01-24 11:03 51°14.091 2°28.513 1.4 235 7 103830 82
2003-01-24 11:04 51°14.241 2°28.765 1.9 255 7.1 103830 82
2003-01-24 11:05 51°14.394 2°29.014 1.5 243 7.1 103830 82
2003-01-24 11:06 51°14.547 2°29.265 1.1 215 7.1 103830 82
2003-01-24 11:07 51°14.699 2°29.516 1.9 218 7 103820 82
2003-01-24 11:08 51°14.854 2°29.765 1.7 233 7 103820 82
2003-01-24 11:09 51°15.007 2°30.016 1.4 232 7 103820 82
2003-01-24 11:10 51°15.161 2°30.267 1.9 223 7 103820 81
2003-01-24 11:11 51°15.327 2°30.53 1.9 226 7.1 103820 81
2003-01-24 11:12 51°15.486 2°30.779 2.2 134 7.1 103820 82
2003-01-24 11:13 51°15.642 2°31.026 2.3 240 7.2 103810 82
2003-01-24 11:14 51°15.799 2°31.271 1.8 240 7.2 103820 82
2003-01-24 11:15 51°15.957 2°31.513 1.9 229 7.2 103820 82
2003-01-24 11:16 51°16.113 2°31.751 1.7 257 7.3 103820 82
2003-01-24 11:17 51°16.273 2°31.99 1.8 256 7.3 103820 81
2003-01-24 11:18 51°16.435 2°32.226 1.1 262 7.3 103820 81
2003-01-24 11:19 51°16.597 2°32.463 1.5 250 7.3 103810 81
2003-01-24 11:20 51°16.761 2°32.698 2 230 7.3 103820 81
2003-01-24 11:21 51°16.924 2°32.934 1.3 248 7.3 103820 81
2003-01-24 11:22 51°17.086 2°33.172 2.6 241 7.3 103810 81
2003-01-24 11:23 51°17.265 2°33.434 1.4 279 7.3 103820 81
2003-01-24 11:24 51°17.427 2°33.669 1.6 243 7.3 103810 81
2003-01-24 11:25 51°17.593 2°33.9 1.6 286 7.3 103810 81
2003-01-24 11:26 51°17.761 2°34.131 1.7 264 7.3 103810 81
2003-01-24 11:27 51°17.912 2°34.376 1.1 253 7.3 103810 81
2003-01-24 11:28 51°18.062 2°34.623 1.9 248 7.3 103810 81
2003-01-24 11:29 51°18.203 2°34.881 1.7 257 7.3 103810 81
2003-01-24 11:30 51°18.342 2°35.141 0.8 228 7.3 103800 81
2003-01-24 11:31 51°18.48 2°35.401 1.3 222 7.3 103800 81
2003-01-24 11:32 51°18.62 2°35.661 1.3 246 7.3 103800 81
2003-01-24 11:33 51°18.759 2°35.923 1.2 220 7.3 103790 81
2003-01-24 11:34 51°18.896 2°36.182 1.3 272 7.4 103800 81
2003-01-24 11:35 51°19.035 2°36.438 1.1 264 7.4 103800 81
2003-01-24 11:36 51°19.169 2°36.702 1.8 238 7.4 103800 80
2003-01-24 11:37 51°19.3 2°36.969 1.6 247 7.4 103800 80
2003-01-24 11:38 51°19.437 2°37.255 1.1 240 7.5 103810 81
2003-01-24 11:39 51°19.571 2°37.521 1.2 238 7.5 103800 80
2003-01-24 11:40 51°19.697 2°37.777 1.2 238 7.6 103800 80
2003-01-24 11:41 51°19.829 2°38.04 1.6 236 7.5 103800 80
2003-01-24 11:42 51°19.956 2°38.293 2.7 246 7.5 103800 80
2003-01-24 11:43 51°20.088 2°38.558 1.9 239 7.4 103800 80
2003-01-24 11:44 51°20.218 2°38.818 2 245 7.5 103800 80
2003-01-24 11:45 51°20.348 2°39.079 1.5 278 7.4 103800 80
2003-01-24 11:46 51°20.479 2°39.339 2.6 248 7.3 103800 80
2003-01-24 11:47 51°20.598 2°39.61 2.3 198 7.4 103810 80
2003-01-24 11:48 51°20.607 2°39.947 5.5 178 7.2 103800 80
2003-01-24 11:49 51°20.58 2°40.279 4.1 183 7.1 103800 80
2003-01-24 11:50 51°20.544 2°40.615 5.4 176 6.9 103800 81
2003-01-24 11:51 51°20.505 2°40.943 6.3 163 6.8 103790 82
2003-01-24 11:52 51°20.465 2°41.274 5.2 171 6.7 103790 82
2003-01-24 11:53 51°20.424 2°41.608 5.4 168 6.6 103790 82
2003-01-24 11:54 51°20.39 2°41.938 6.5 174 6.6 103790 83
2003-01-24 11:55 51°20.353 2°42.263 4.8 181 6.6 103790 83
2003-01-24 11:56 51°20.311 2°42.596 5.3 175 6.5 103800 83
2003-01-24 11:57 51°20.272 2°42.939 4.9 174 6.5 103790 83
2003-01-24 11:58 51°20.233 2°43.266 4.2 179 6.4 103790 84
2003-01-24 11:59 51°20.191 2°43.605 4 184 6.4 103790 84
2003-01-24 12:00 51°20.158 2°43.934 4.1 184 6.4 103780 84
2003-01-24 12:01 51°20.125 2°44.274 4.7 181 6.4 103780 84
2003-01-24 12:02 51°20.092 2°44.602 4.3 181 6.4 103790 85
2003-01-24 12:03 51°20.061 2°44.94 3.9 180 6.4 103780 85
2003-01-24 12:04 51°20.03 2°45.267 4.2 183 6.3 103780 85
2003-01-24 12:05 51°20 2°45.606 4.4 180 6.3 103780 85
2003-01-24 12:06 51°19.968 2°45.935 4.4 180 6.3 103780 85
2003-01-24 12:07 51°19.935 2°46.258 5.2 184 6.3 103780 85
2003-01-24 12:08 51°19.896 2°46.589 5.3 178 6.2 103780 85
2003-01-24 12:09 51°19.819 2°46.906 6.7 180 6.2 103780 86
2003-01-24 12:10 51°19.708 2°47.208 6.7 188 6.2 103780 86
2003-01-24 12:11 51°19.602 2°47.502 6.4 183 6.2 103780 86
2003-01-24 12:12 51°19.484 2°47.793 7.1 186 6.1 103780 86
2003-01-24 12:13 51°19.357 2°48.077 7.2 192 6.1 103770 86
2003-01-24 12:14 51°19.23 2°48.368 6.7 189 6.1 103770 86
2003-01-24 12:15 51°19.109 2°48.65 6.6 183 6.1 103770 86
2003-01-24 12:16 51°18.983 2°48.943 7.5 191 6.1 103780 86
2003-01-24 12:17 51°18.855 2°49.228 7.9 190 6.1 103780 86
2003-01-24 12:18 51°18.729 2°49.512 8.6 195 6 103780 86
2003-01-24 12:19 51°18.596 2°49.809 8.1 192 6 103780 86
2003-01-24 12:20 51°18.474 2°50.101 6.9 185 6 103770 86
2003-01-24 12:21 51°18.351 2°50.396 6.9 191 6 103770 85
2003-01-24 12:22 51°18.202 2°50.669 7.8 189 6 103770 85
2003-01-24 12:23 51°18.048 2°50.94 8.8 196 5.9 103770 85
2003-01-24 12:24 51°17.905 2°51.222 7.8 192 5.9 103770 85
2003-01-24 12:25 51°17.765 2°51.505 7.6 190 6 103770 84
2003-01-24 12:26 51°17.621 2°51.786 7.5 189 6 103770 84
2003-01-24 12:27 51°17.46 2°52.054 7.5 188 6 103770 83
2003-01-24 12:28 51°17.272 2°52.278 10.1 199 6 103770 83
2003-01-24 12:29 51°17.064 2°52.46 10.3 202 6 103770 82
2003-01-24 12:30 51°16.878 2°52.686 8.4 204 6.1 103780 82
2003-01-24 12:31 51°16.678 2°52.877 10.3 205 6.1 103770 82
2003-01-24 12:32 51°16.465 2°53.065 9.1 208 6.1 103770 82
2003-01-24 12:33 51°16.257 2°53.248 9 204 6.1 103760 81
2003-01-24 12:34 51°16.052 2°53.427 9.5 204 6.1 103760 81
2003-01-24 12:35 51°15.848 2°53.604 8.7 203 6.1 103760 80
2003-01-24 12:36 51°15.647 2°53.78 9.3 202 6.1 103760 80
2003-01-24 12:37 51°15.448 2°53.951 9.5 204 6.1 103760 80
2003-01-24 12:38 51°15.253 2°54.113 8.8 199 6.2 103760 79
2003-01-24 12:39 51°15.066 2°54.275 8.6 200 6.2 103760 79
2003-01-24 12:40 51°14.881 2°54.433 9.3 202 6.3 103760 78
2003-01-24 12:41 51°14.692 2°54.594 9.2 199 6.3 103760 78
2003-01-24 12:42 51°14.52 2°54.774 7.8 190 6.3 103760 78
2003-01-24 12:43 51°14.402 2°54.99 6.2 176 6.3 103760 77
2003-01-24 12:44 51°14.316 2°55.197 5 177 6.3 103770 77
2003-01-24 12:45 51°14.233 2°55.343 4.9 173 6.4 103770 77
2003-01-24 12:46 51°14.146 2°55.413 4 179 6.5 103770 76
2003-01-24 12:47 51°14.057 2°55.472 4.3 195 6.7 103770 74
2003-01-24 12:48 51°13.956 2°55.544 5.1 201 6.8 103760 72